createdAt,value
2023-01-11T05:01:46.100Z,8.11
2023-01-11T05:05:56.007Z,8.18
2023-01-11T05:09:58.621Z,8.20
2023-01-11T05:14:02.292Z,8.25
2023-01-11T05:18:06.655Z,8.28
2023-01-11T05:22:09.374Z,8.26
2023-01-11T05:26:15.601Z,8.31
2023-01-11T05:30:18.672Z,8.18
2023-01-11T05:34:22.567Z,8.25
2023-01-11T05:38:25.273Z,8.36
2023-01-11T05:42:27.787Z,8.27
2023-01-11T05:46:30.667Z,8.28
2023-01-11T05:50:34.505Z,8.34
2023-01-11T05:54:37.143Z,8.45
2023-01-11T05:58:39.681Z,8.49
2023-01-11T06:02:42.295Z,8.53
2023-01-11T06:06:46.250Z,8.53
2023-01-11T06:10:52.359Z,8.55
2023-01-11T06:14:54.927Z,8.52
2023-01-11T06:18:57.448Z,8.56
2023-01-11T06:23:01.314Z,8.53
2023-01-11T06:27:03.830Z,8.67
2023-01-11T06:31:07.422Z,8.63
2023-01-11T06:35:10.362Z,8.65
2023-01-11T06:39:14.195Z,8.64
2023-01-11T06:43:16.688Z,8.71
2023-01-11T06:47:19.192Z,8.64
2023-01-11T06:51:21.696Z,8.80
2023-01-11T06:55:27.377Z,8.70
2023-01-11T06:59:29.922Z,8.83
2023-01-11T07:03:32.565Z,8.86
2023-01-11T07:07:35.066Z,8.92
2023-01-11T07:11:39.675Z,8.94
2023-01-11T07:15:42.215Z,8.93
2023-01-11T07:19:44.787Z,8.90
2023-01-11T07:23:48.712Z,8.88
2023-01-11T07:27:56.915Z,8.88
2023-01-11T07:31:59.455Z,8.87
2023-01-11T07:36:05.307Z,8.80
2023-01-11T07:40:09.099Z,8.83
2023-01-11T07:44:12.922Z,8.94
2023-01-11T07:48:20.568Z,8.99
2023-01-11T07:52:23.158Z,9.01
2023-01-11T07:56:25.680Z,9.05
2023-01-11T08:00:29.712Z,9.11
2023-01-11T08:04:32.236Z,9.16
2023-01-11T08:08:34.741Z,9.15
2023-01-11T08:13:00.982Z,9.21
2023-01-11T08:17:05.193Z,9.24
2023-01-11T08:21:07.703Z,9.27
2023-01-11T08:25:11.339Z,9.35
2023-01-11T08:29:13.973Z,9.21
2023-01-11T08:33:17.803Z,9.30
2023-01-11T08:37:20.434Z,9.22
2023-01-11T08:41:23.061Z,9.29
2023-01-11T08:45:25.935Z,9.28
2023-01-11T08:49:30.447Z,9.37
2023-01-11T08:53:33.084Z,9.40
2023-01-11T08:57:36.547Z,9.44
2023-01-11T09:01:39.062Z,9.52
2023-01-11T09:05:43.077Z,9.51
2023-01-11T09:09:45.596Z,9.41
2023-01-11T09:13:48.075Z,9.50
2023-01-11T09:17:50.743Z,9.54
2023-01-11T09:21:57.678Z,9.60
2023-01-11T09:26:00.187Z,9.68
2023-01-11T09:30:02.751Z,9.69
2023-01-11T09:34:06.912Z,9.77
2023-01-11T09:38:10.898Z,9.80
2023-01-11T09:42:31.581Z,9.91
2023-01-11T09:46:36.944Z,9.89
2023-01-11T09:50:44.115Z,9.93
2023-01-11T09:54:48.184Z,9.98
2023-01-11T09:59:00.708Z,10.04
2023-01-11T10:03:24.133Z,10.06
2023-01-11T10:07:49.769Z,10.01
2023-01-11T10:18:34.381Z,10.05
2023-01-11T10:21:07.638Z,10.15
2023-01-11T10:25:18.685Z,10.13
2023-01-11T10:29:45.969Z,10.12
2023-01-11T10:34:09.165Z,10.18
2023-01-11T10:38:42.713Z,10.22
2023-01-11T10:42:52.150Z,10.27
2023-01-11T10:46:58.083Z,10.33
2023-01-11T10:51:04.442Z,10.54
2023-01-11T10:55:15.033Z,10.54
2023-01-11T10:59:35.673Z,10.64
2023-01-11T11:04:00.089Z,10.57
2023-01-11T11:08:09.851Z,10.60
2023-01-11T11:12:18.997Z,10.69
2023-01-11T11:16:37.583Z,10.61
2023-01-11T11:20:43.946Z,10.55
2023-01-11T11:24:50.643Z,10.60
2023-01-11T11:29:01.607Z,10.80
2023-01-11T11:33:08.438Z,10.82
2023-01-11T11:37:21.532Z,10.85
2023-01-11T11:41:24.726Z,10.83
2023-01-11T11:45:28.379Z,10.80
2023-01-11T11:49:32.028Z,10.89
2023-01-11T11:53:40.059Z,10.99
2023-01-11T11:57:44.941Z,10.92
2023-01-11T12:01:50.720Z,10.87
2023-01-11T12:05:56.544Z,10.94
2023-01-11T12:10:04.124Z,10.91
2023-01-11T12:14:17.921Z,10.83
2023-01-11T12:18:25.831Z,10.97
2023-01-11T12:22:30.146Z,10.93
2023-01-11T12:26:39.335Z,10.93
2023-01-11T12:30:46.684Z,10.99
2023-01-11T12:35:14.875Z,10.97
2023-01-11T12:39:24.288Z,10.92
2023-01-11T12:43:46.870Z,11.08
2023-01-11T12:48:05.569Z,11.04
2023-01-11T12:52:46.217Z,11.04
2023-01-11T12:57:04.620Z,10.86
2023-01-11T13:01:34.359Z,10.75
2023-01-11T13:05:45.003Z,10.84
2023-01-11T13:09:58.121Z,10.92
2023-01-11T13:14:09.578Z,10.94
2023-01-11T13:18:27.716Z,10.91
2023-01-11T13:22:34.492Z,10.86
2023-01-11T13:26:40.181Z,10.71
2023-01-11T13:30:45.733Z,10.83
2023-01-11T13:34:54.005Z,10.83
2023-01-11T13:39:01.463Z,10.84
2023-01-11T13:43:08.673Z,10.75
2023-01-11T13:47:19.178Z,10.72
2023-01-11T13:51:32.051Z,10.89
2023-01-11T13:55:41.651Z,10.78
2023-01-11T13:59:47.558Z,10.86
2023-01-11T14:03:54.433Z,10.84
2023-01-11T14:08:12.877Z,10.88
2023-01-11T14:12:26.313Z,10.85
2023-01-11T14:16:38.788Z,10.84
2023-01-11T14:20:47.940Z,10.76
2023-01-11T14:24:59.027Z,10.62
2023-01-11T14:29:18.419Z,10.64
2023-01-11T14:33:49.568Z,10.60
2023-01-11T14:38:26.124Z,10.50
2023-01-11T14:42:52.897Z,10.48
2023-01-11T14:47:13.012Z,10.49
2023-01-11T14:51:32.583Z,10.42
2023-01-11T14:55:45.174Z,10.36
2023-01-11T14:59:49.122Z,10.36
2023-01-11T15:03:57.328Z,10.36
2023-01-11T15:08:25.928Z,10.28
2023-01-11T15:12:43.283Z,10.21
2023-01-11T15:17:09.567Z,10.05
2023-01-11T15:21:18.336Z,9.96
2023-01-11T15:25:23.088Z,9.90
2023-01-11T15:29:29.122Z,9.77
2023-01-11T15:33:47.239Z,9.76
2023-01-11T15:37:57.142Z,9.72
2023-01-11T15:42:16.272Z,9.58
2023-01-11T15:46:49.465Z,9.56
2023-01-11T15:51:09.719Z,9.48
2023-01-11T15:55:48.326Z,9.47
2023-01-11T16:00:21.378Z,9.41
2023-01-11T16:04:29.237Z,9.39
2023-01-11T16:08:39.124Z,9.30
2023-01-11T16:12:55.415Z,9.07
2023-01-11T16:16:59.183Z,8.88
2023-01-11T16:21:06.142Z,9.07
2023-01-11T16:25:15.555Z,9.13
2023-01-11T16:29:23.830Z,9.25
2023-01-11T16:33:28.725Z,9.27
2023-01-11T16:37:38.248Z,9.37
2023-01-11T16:41:47.735Z,9.45
2023-01-11T16:45:53.978Z,9.48
2023-01-11T16:50:20.686Z,9.29
2023-01-11T16:54:27.108Z,9.12
2023-01-11T16:58:32.650Z,8.95
2023-01-11T17:02:38.697Z,9.07
2023-01-11T17:06:41.424Z,9.05
2023-01-11T17:10:43.947Z,9.08
2023-01-11T17:14:59.513Z,9.04
2023-01-11T17:19:09.172Z,8.87
2023-01-11T17:23:16.198Z,8.59
2023-01-11T17:27:22.398Z,8.23
2023-01-11T17:31:30.534Z,7.93
2023-01-11T17:35:37.856Z,7.88
2023-01-11T17:39:44.053Z,7.93
2023-01-11T17:44:06.494Z,7.98
2023-01-11T17:48:15.426Z,8.05
2023-01-11T17:52:22.374Z,8.13
2023-01-11T17:56:37.545Z,8.41
2023-01-11T18:00:41.778Z,8.43
2023-01-11T18:04:45.840Z,8.11
2023-01-11T18:08:51.009Z,8.23
2023-01-11T18:12:56.169Z,8.28
2023-01-11T18:17:01.993Z,8.40
2023-01-11T18:21:40.003Z,8.31
2023-01-11T18:25:45.834Z,8.23
2023-01-11T18:29:52.451Z,8.04
2023-01-11T18:33:55.076Z,7.71
2023-01-11T18:37:58.994Z,7.90
2023-01-11T18:42:08.503Z,7.93
2023-01-11T18:46:11.197Z,7.87
2023-01-11T18:50:14.146Z,7.90
2023-01-11T18:54:19.197Z,7.82
2023-01-11T18:58:21.747Z,7.63
2023-01-11T19:02:26.905Z,7.13
2023-01-11T19:06:29.420Z,6.83
2023-01-11T19:10:36.145Z,6.94
2023-01-11T19:14:38.681Z,7.09
2023-01-11T19:18:41.373Z,6.92
2023-01-11T19:22:43.858Z,6.66
2023-01-11T19:26:47.768Z,6.37
2023-01-11T19:30:50.428Z,6.18
2023-01-11T19:34:53.503Z,6.08
2023-01-11T19:38:56.074Z,5.96
2023-01-11T19:43:00.616Z,5.82
2023-01-11T19:47:11.607Z,5.53
2023-01-11T19:51:15.178Z,5.49
2023-01-11T19:55:17.983Z,5.40
2023-01-11T19:59:22.301Z,5.27
2023-01-11T20:03:24.839Z,5.24
2023-01-11T20:07:28.055Z,5.11
2023-01-11T20:11:30.637Z,5.03
2023-01-11T20:15:34.563Z,4.91
2023-01-11T20:19:37.123Z,4.98
2023-01-11T20:23:39.670Z,5.13
2023-01-11T20:27:42.188Z,5.33
2023-01-11T20:31:46.340Z,5.48
2023-01-11T20:35:49.378Z,5.52
2023-01-11T20:39:51.915Z,5.58
2023-01-11T20:43:54.421Z,5.81
2023-01-11T20:47:58.313Z,5.98
2023-01-11T20:52:00.832Z,5.93
2023-01-11T20:56:05.591Z,5.84
2023-01-11T21:04:14.672Z,5.24
2023-01-11T21:08:17.139Z,5.17
2023-01-11T21:12:20.297Z,4.99
2023-01-11T21:16:25.351Z,4.86
2023-01-11T21:20:29.256Z,4.79
2023-01-11T21:24:31.820Z,4.59
2023-01-11T21:28:34.345Z,4.62
2023-01-11T21:32:36.848Z,4.43
2023-01-11T21:36:41.293Z,4.23
2023-01-11T21:40:43.926Z,4.16
2023-01-11T21:44:46.485Z,3.96
2023-01-11T21:48:49.026Z,3.89
2023-01-11T21:52:55.673Z,3.96
2023-01-11T21:56:58.190Z,3.92
